Time;durP1;ratioP1;P1;durP2;ratioP2;P2;SDS_P1;SDS_P2;PMS_P1;PMS_P2;Temp;Humidity;BMP_temperature;BMP_pressure;BME280_temperature;BME280_humidity;BME280_pressure;Samples;Min_cycle;Max_cycle;Signal;HPM_P1;HPM_P2
2023/07/17 00:05:24;;;;;;;5.50;3.40;;;;;;;21.56;54.14;99293.34;7195112;40;20312;31
2023/07/17 00:10:59;;;;;;;4.35;2.90;;;;;;;21.54;53.93;99289.97;7145110;40;20255;31
2023/07/17 00:16:35;;;;;;;5.63;3.00;;;;;;;21.59;54.64;99292.87;7136946;40;20270;31
2023/07/17 00:21:55;;;;;;;6.05;3.30;;;;;;;21.57;54.49;99291.44;7137846;40;20299;31
2023/07/17 00:27:30;;;;;;;7.08;3.20;;;;;;;21.53;54.78;99295.72;7137775;40;20255;31
2023/07/17 00:33:03;;;;;;;6.30;3.08;;;;;;;21.58;54.70;99301.34;7125187;40;20414;31
2023/07/17 00:38:23;;;;;;;5.70;3.08;;;;;;;21.58;54.21;99304.94;7174426;40;20250;31
2023/07/17 00:43:55;;;;;;;6.90;3.15;;;;;;;21.54;54.61;99306.44;7170214;40;20483;31
2023/07/17 00:49:28;;;;;;;5.87;3.30;;;;;;;21.53;54.90;99309.44;7157255;40;20341;31
2023/07/17 00:55:04;;;;;;;5.75;3.00;;;;;;;21.53;55.28;99302.06;7164743;40;20267;31
2023/07/17 01:00:38;;;;;;;8.40;3.37;;;;;;;21.47;55.08;99297.50;7184960;40;20328;31
2023/07/17 01:06:12;;;;;;;7.45;3.55;;;;;;;21.26;56.18;99309.00;7200486;40;20276;31
2023/07/17 01:11:44;;;;;;;5.07;3.12;;;;;;;21.16;56.29;99303.22;7196235;40;21301;31
2023/07/17 01:22:24;;;;;;;5.83;3.20;;;;;;;21.03;56.64;99317.91;7192815;40;20286;31
2023/07/17 01:33:04;;;;;;;5.80;3.50;;;;;;;20.88;57.46;99324.88;7257191;39;20337;31
2023/07/17 01:43:43;;;;;;;4.37;3.10;;;;;;;20.80;56.03;99320.53;7275283;40;20249;31
2023/07/17 01:49:16;;;;;;;7.50;3.35;;;;;;;20.71;57.51;99321.94;7213874;40;20268;31
2023/07/17 01:54:51;;;;;;;6.40;3.40;;;;;;;20.72;57.05;99328.22;7157906;40;20275;31
2023/07/17 02:06:28;;;;;;;7.80;3.20;;;;;;;20.48;58.98;99329.97;7225860;40;20261;31
2023/07/17 02:11:48;;;;;;;6.60;3.33;;;;;;;20.30;58.25;99333.53;7274645;40;21326;31
2023/07/17 02:22:23;;;;;;;6.03;3.47;;;;;;;20.14;59.87;99325.88;7314953;39;20355;31
2023/07/17 02:27:41;;;;;;;7.80;3.70;;;;;;;20.05;58.74;99324.50;7252417;40;20249;31
2023/07/17 02:32:58;;;;;;;6.25;3.30;;;;;;;19.94;59.07;99330.69;7285465;39;20252;31
2023/07/17 02:38:30;;;;;;;7.25;3.45;;;;;;;19.82;59.94;99338.78;7296186;40;20357;31
2023/07/17 02:44:05;;;;;;;6.17;3.60;;;;;;;19.82;61.08;99348.88;7260866;40;20372;31
2023/07/17 02:49:26;;;;;;;4.90;3.57;;;;;;;19.82;60.45;99336.06;7229390;40;20245;31
2023/07/17 02:55:04;;;;;;;5.70;3.30;;;;;;;19.80;60.89;99351.84;7220261;40;20246;31
2023/07/17 03:00:37;;;;;;;4.67;3.10;;;;;;;19.85;60.60;99349.28;7236872;40;20263;31
2023/07/17 03:05:58;;;;;;;5.25;3.00;;;;;;;19.89;60.54;99347.75;6965006;40;21231;31
2023/07/17 03:11:34;;;;;;;8.00;3.90;;;;;;;19.86;60.08;99348.22;7201569;40;20258;31
2023/07/17 03:17:06;;;;;;;6.93;3.57;;;;;;;19.85;61.21;99362.13;7185957;40;20258;31
2023/07/17 03:22:40;;;;;;;5.70;3.45;;;;;;;19.79;60.78;99348.25;7202891;40;21991;31
2023/07/17 03:28:18;;;;;;;7.27;3.10;;;;;;;19.75;62.07;99363.44;7193625;40;20380;31
2023/07/17 03:33:36;;;;;;;5.63;3.03;;;;;;;19.62;61.53;99362.69;7158580;40;20367;31
2023/07/17 03:38:56;;;;;;;5.65;3.30;;;;;;;19.55;61.29;99365.50;7202091;40;20258;31
2023/07/17 03:44:32;;;;;;;5.73;3.50;;;;;;;19.48;61.25;99378.38;7189051;40;20472;31
2023/07/17 03:50:07;;;;;;;7.10;3.30;;;;;;;19.47;61.43;99389.53;7233751;40;20423;31
2023/07/17 04:00:47;;;;;;;5.43;3.20;;;;;;;19.32;62.25;99381.56;7199182;40;20352;31
2023/07/17 04:06:22;;;;;;;7.60;3.65;;;;;;;19.33;63.19;99380.53;7237589;40;20373;31
2023/07/17 04:11:57;;;;;;;6.53;3.33;;;;;;;19.39;62.70;99385.13;7193155;40;20292;31
2023/07/17 04:17:33;;;;;;;4.97;3.43;;;;;;;19.40;61.74;99392.25;7201494;40;20238;31
2023/07/17 04:23:05;;;;;;;6.10;3.30;;;;;;;19.47;63.14;99389.53;7174544;40;20250;31
2023/07/17 04:28:41;;;;;;;5.20;3.45;;;;;;;19.51;62.54;99397.06;7139660;40;20346;31
2023/07/17 04:34:17;;;;;;;5.37;3.30;;;;;;;19.46;62.93;99405.09;7157103;40;20243;31
2023/07/17 04:39:37;;;;;;;7.00;3.50;;;;;;;19.53;61.83;99397.66;7210374;40;20374;31
2023/07/17 04:44:57;;;;;;;6.50;3.55;;;;;;;19.54;62.52;99406.72;7240230;40;20245;31
2023/07/17 04:50:30;;;;;;;6.03;3.10;;;;;;;19.47;62.07;99404.03;7250890;40;20456;31
2023/07/17 04:55:48;;;;;;;6.37;3.30;;;;;;;19.51;62.38;99408.00;7228256;40;20359;31
2023/07/17 05:01:22;;;;;;;8.40;4.50;;;;;;;19.56;62.38;99415.56;7215965;40;20356;31
2023/07/17 05:06:58;;;;;;;5.30;3.57;;;;;;;19.55;63.33;99417.44;7240312;40;20242;31
2023/07/17 05:12:33;;;;;;;6.67;4.23;;;;;;;19.56;63.35;99416.41;7241956;40;20245;31
2023/07/17 05:18:08;;;;;;;4.87;3.70;;;;;;;19.66;63.75;99422.19;7212351;40;20257;31
2023/07/17 05:23:44;;;;;;;6.37;3.83;;;;;;;19.74;62.91;99424.69;7152505;40;20353;31
2023/07/17 05:29:19;;;;;;;7.15;4.00;;;;;;;19.97;63.84;99429.56;7163812;40;20366;31
2023/07/17 05:34:39;;;;;;;8.03;3.80;;;;;;;20.15;63.00;99431.53;7176848;40;20344;31
2023/07/17 05:40:15;;;;;;;6.67;3.70;;;;;;;20.27;62.23;99433.34;7184896;40;20245;31
2023/07/17 05:45:47;;;;;;;8.95;3.50;;;;;;;20.42;62.04;99437.69;7252657;40;20263;31
2023/07/17 05:51:04;;;;;;;6.65;3.75;;;;;;;20.58;61.37;99435.19;7212292;40;20378;31
2023/07/17 05:56:37;;;;;;;6.80;3.20;;;;;;;20.75;60.00;99442.84;7252329;40;20349;31
2023/07/17 06:02:09;;;;;;;4.83;3.73;;;;;;;20.83;60.45;99446.13;7223926;40;20257;31
2023/07/17 06:12:49;;;;;;;8.65;3.70;;;;;;;21.11;59.72;99453.81;7236659;40;20259;31
2023/07/17 06:23:28;;;;;;;8.40;4.30;;;;;;;21.33;58.78;99466.03;7215318;40;20319;31
2023/07/17 06:34:08;;;;;;;8.20;3.70;;;;;;;21.80;57.98;99463.53;7245659;40;20279;31
2023/07/17 06:44:29;;;;;;;5.94;3.60;;;;;;;22.06;54.29;99474.19;7237280;40;21182;31
2023/07/17 06:50:05;;;;;;;7.30;3.53;;;;;;;22.20;53.89;99475.66;7235407;40;20249;31
2023/07/17 06:55:37;;;;;;;6.20;3.50;;;;;;;22.34;53.49;99481.75;7200353;40;20362;31
2023/07/17 07:01:14;;;;;;;4.85;3.35;;;;;;;22.46;53.05;99464.25;7232550;40;20358;31
2023/07/17 07:11:52;;;;;;;6.93;3.70;;;;;;;22.65;51.98;99473.19;7181388;40;20508;31
2023/07/17 07:22:14;;;;;;;6.84;3.36;;;;;;;23.01;50.96;99482.31;7240171;40;20545;31
2023/07/17 07:32:51;;;;;;;11.60;3.50;;;;;;;23.42;49.63;99495.06;7277456;39;21058;31
2023/07/17 07:43:30;;;;;;;4.35;2.83;;;;;;;23.70;48.35;99501.47;7273344;40;20288;31
2023/07/17 07:54:10;;;;;;;6.45;2.90;;;;;;;23.98;47.92;99510.84;7244134;40;21203;31
2023/07/17 07:59:27;;;;;;;10.07;3.20;;;;;;;24.13;47.28;99519.41;7231078;40;20269;31
2023/07/17 08:04:54;;;;;;;6.38;3.24;;;;;;;24.26;46.33;99515.53;7239853;40;20299;31
2023/07/17 08:10:30;;;;;;;4.62;2.80;;;;;;;24.46;46.49;99513.97;7277075;40;20356;31
2023/07/17 08:16:05;;;;;;;4.97;2.70;;;;;;;24.51;45.36;99518.75;7269641;40;20260;31
2023/07/17 08:21:26;;;;;;;6.20;3.30;;;;;;;24.56;43.81;99511.41;7248410;40;20263;31
2023/07/17 08:27:01;;;;;;;7.40;3.10;;;;;;;24.60;43.09;99522.75;7236369;40;20499;31
2023/07/17 08:32:22;;;;;;;6.83;3.43;;;;;;;24.69;43.46;99524.84;7136062;40;20343;31
2023/07/17 08:37:42;;;;;;;6.65;3.15;;;;;;;24.89;42.04;99524.38;7201668;40;20323;31
2023/07/17 08:43:17;;;;;;;4.95;3.00;;;;;;;24.89;42.19;99518.03;7197003;40;20262;31
2023/07/17 08:48:53;;;;;;;5.15;3.10;;;;;;;25.07;39.33;99524.09;7219231;40;20427;31
2023/07/17 08:54:27;;;;;;;6.30;3.42;;;;;;;25.31;41.10;99512.87;7213932;40;20246;31
2023/07/17 09:00:05;;;;;;;4.57;3.53;;;;;;;25.54;40.53;99520.94;7191648;40;20258;31
2023/07/17 09:05:39;;;;;;;6.87;3.03;;;;;;;25.77;40.45;99515.16;7135886;40;20282;31
2023/07/17 09:11:15;;;;;;;6.25;3.22;;;;;;;25.84;39.94;99518.59;7118917;41;20268;31
2023/07/17 09:16:51;;;;;;;6.43;3.20;;;;;;;25.75;39.86;99508.25;7111916;40;20259;31
2023/07/17 09:22:27;;;;;;;5.00;3.00;;;;;;;25.50;38.70;99504.00;7177732;40;21573;31
2023/07/17 09:28:02;;;;;;;4.82;3.25;;;;;;;25.25;39.43;99503.69;7178193;40;20333;31
2023/07/17 09:33:34;;;;;;;6.25;3.05;;;;;;;25.17;39.51;99512.41;7134544;40;20255;31
2023/07/17 09:39:07;;;;;;;7.37;3.23;;;;;;;25.12;39.95;99504.03;7205233;40;20438;31
2023/07/17 09:49:43;;;;;;;6.67;3.17;;;;;;;25.82;38.41;99514.38;7214868;40;21314;31
2023/07/17 10:00:21;;;;;;;5.82;3.62;;;;;;;26.19;38.45;99522.84;7237882;40;21292;31
2023/07/17 10:05:54;;;;;;;6.40;3.20;;;;;;;26.13;38.29;99510.03;7178085;40;20284;31
2023/07/17 10:11:30;;;;;;;7.32;3.20;;;;;;;26.08;38.42;99521.03;7006854;40;21516;31
2023/07/17 10:17:03;;;;;;;4.12;2.83;;;;;;;26.12;39.27;99517.50;7192818;40;20394;31
2023/07/17 10:22:35;;;;;;;6.40;3.40;;;;;;;26.11;38.32;99518.59;7184851;40;20274;31
2023/07/17 10:33:19;;;;;;;5.95;3.20;;;;;;;26.37;36.93;99511.44;7201056;40;20266;31
2023/07/17 10:39:06;;;;;;;5.68;3.00;;;;;;;26.75;36.59;99514.00;7241459;40;20257;31
2023/07/17 10:44:26;;;;;;;5.12;3.52;;;;;;;26.79;35.42;99511.53;7233049;40;20276;31
2023/07/17 10:49:58;;;;;;;4.97;3.00;;;;;;;26.75;35.42;99507.63;7254186;40;20350;31
2023/07/17 10:55:31;;;;;;;6.95;3.00;;;;;;;26.91;33.62;99490.06;7193597;40;20273;31
2023/07/17 11:01:03;;;;;;;5.20;3.00;;;;;;;27.17;33.69;99488.28;7185351;40;20697;31
2023/07/17 11:06:37;;;;;;;3.58;2.42;;;;;;;27.22;33.39;99493.88;7179834;40;20258;31
2023/07/17 11:12:10;;;;;;;5.62;2.80;;;;;;;27.65;33.85;99492.72;7113029;40;20259;31
2023/07/17 11:22:45;;;;;;;5.54;2.90;;;;;;;27.45;32.23;99487.91;7165082;40;20262;31
2023/07/17 11:33:22;;;;;;;5.12;2.90;;;;;;;27.88;33.13;99494.19;7254789;40;21165;31
2023/07/17 11:43:43;;;;;;;3.72;2.62;;;;;;;27.92;32.60;99487.00;7297587;39;21207;31
2023/07/17 11:49:16;;;;;;;4.65;2.65;;;;;;;27.97;30.99;99484.25;7273374;40;20273;31
2023/07/17 11:59:55;;;;;;;4.60;2.60;;;;;;;27.76;32.18;99469.50;7234642;40;21149;31
2023/07/17 12:05:29;;;;;;;4.50;2.50;;;;;;;27.85;31.30;99455.97;7249956;40;20270;31
2023/07/17 12:16:03;;;;;;;3.43;2.23;;;;;;;28.28;32.40;99458.28;7232257;40;21273;31
2023/07/17 12:26:40;;;;;;;6.00;2.42;;;;;;;28.71;30.83;99451.38;7213771;40;20291;31
2023/07/17 12:37:01;;;;;;;3.17;2.37;;;;;;;28.60;32.04;99455.25;7166072;40;21190;31
2023/07/17 12:47:39;;;;;;;9.73;2.30;;;;;;;28.87;31.75;99443.91;7242785;40;20272;31
2023/07/17 12:52:59;;;;;;;3.50;1.92;;;;;;;28.97;31.08;99454.97;7295756;39;20241;31
2023/07/17 12:58:34;;;;;;;4.68;2.12;;;;;;;28.71;32.04;99445.84;7277190;40;20257;31
2023/07/17 13:04:08;;;;;;;3.80;2.20;;;;;;;28.88;31.75;99440.81;7252672;40;20253;31
2023/07/17 13:09:40;;;;;;;5.30;2.10;;;;;;;28.91;31.77;99454.16;7204617;40;20397;31
2023/07/17 13:15:15;;;;;;;4.03;2.10;;;;;;;28.80;31.22;99441.38;7177409;40;20274;31
2023/07/17 13:20:50;;;;;;;4.35;1.80;;;;;;;28.94;30.76;99445.25;7223732;40;20555;31
2023/07/17 13:26:22;;;;;;;2.18;1.50;;;;;;;28.76;31.18;99448.62;7237097;40;20257;31
2023/07/17 13:31:59;;;;;;;3.18;1.70;;;;;;;28.73;31.25;99437.25;7214921;40;20340;31
2023/07/17 13:37:31;;;;;;;3.02;1.90;;;;;;;28.45;30.74;99442.22;7245354;40;20268;31
2023/07/17 13:43:07;;;;;;;3.00;1.87;;;;;;;28.74;31.28;99433.38;7160272;40;20285;31
2023/07/17 13:53:43;;;;;;;2.87;1.60;;;;;;;29.10;30.40;99444.09;7163404;40;21448;31
2023/07/17 14:04:09;;;;;;;2.78;1.94;;;;;;;28.82;30.42;99441.12;7245568;40;20268;31
2023/07/17 14:09:42;;;;;;;4.12;2.00;;;;;;;29.12;30.28;99439.13;7255234;40;20281;31
2023/07/17 14:15:17;;;;;;;3.90;1.70;;;;;;;28.68;30.00;99436.13;7278186;39;22078;31
2023/07/17 14:25:57;;;;;;;2.20;1.50;;;;;;;28.85;28.77;99440.56;7243604;40;21364;31
2023/07/17 14:31:32;;;;;;;2.97;2.00;;;;;;;28.95;29.19;99440.53;7238404;40;20305;31
2023/07/17 14:42:09;;;;;;;2.20;1.43;;;;;;;28.92;28.70;99413.31;7274413;40;21154;31
2023/07/17 14:52:31;;;;;;;2.80;1.60;;;;;;;28.84;29.89;99425.00;7215367;40;20455;31
2023/07/17 15:03:08;;;;;;;3.10;1.80;;;;;;;28.96;30.16;99412.47;7255466;40;20277;31
2023/07/17 15:08:25;;;;;;;2.47;1.70;;;;;;;28.82;30.90;99411.44;7214233;40;20243;31
2023/07/17 15:13:44;;;;;;;4.22;1.80;;;;;;;28.84;30.11;99417.50;7259510;40;20267;31
2023/07/17 15:19:15;;;;;;;3.47;1.97;;;;;;;28.84;29.90;99411.12;7296258;39;20264;31
2023/07/17 15:24:33;;;;;;;3.95;2.00;;;;;;;28.94;29.70;99411.94;7229113;40;20272;31
2023/07/17 15:30:05;;;;;;;2.75;1.70;;;;;;;29.06;29.41;99419.97;7260378;40;20280;31
2023/07/17 15:35:39;;;;;;;2.80;1.60;;;;;;;29.10;28.52;99416.34;7234618;40;20452;31
2023/07/17 15:41:13;;;;;;;3.30;1.50;;;;;;;29.17;27.45;99431.88;7159085;40;20348;31
2023/07/17 15:46:45;;;;;;;2.92;1.80;;;;;;;29.31;28.85;99417.13;7135344;40;20542;31
2023/07/17 15:57:23;;;;;;;2.70;1.70;;;;;;;29.40;29.70;99434.06;7159532;40;20516;31
2023/07/17 16:07:46;;;;;;;3.85;1.70;;;;;;;28.91;29.10;99423.63;7286700;39;20351;31
2023/07/17 16:13:19;;;;;;;2.60;1.76;;;;;;;28.81;28.53;99433.91;7312961;39;20268;31
2023/07/17 16:18:51;;;;;;;2.17;1.62;;;;;;;28.73;29.29;99432.53;7232526;40;20274;31
2023/07/17 16:24:26;;;;;;;2.95;1.62;;;;;;;28.74;28.20;99434.22;7211403;40;20246;31
2023/07/17 16:29:59;;;;;;;2.90;1.73;;;;;;;28.91;28.99;99436.66;7192021;40;20284;31
2023/07/17 16:35:31;;;;;;;2.95;1.70;;;;;;;28.92;28.99;99443.84;7155999;40;20333;31
2023/07/17 16:41:03;;;;;;;4.20;1.80;;;;;;;28.88;29.88;99435.25;7223515;40;21335;31
2023/07/17 16:46:36;;;;;;;3.32;1.56;;;;;;;28.97;30.15;99441.06;7214448;40;20254;31
2023/07/17 16:51:57;;;;;;;5.18;1.98;;;;;;;28.91;28.81;99445.00;7225862;40;20261;31
2023/07/17 16:57:31;;;;;;;4.85;2.10;;;;;;;28.86;29.37;99445.84;7173426;40;20265;31
2023/07/17 17:03:03;;;;;;;2.55;1.70;;;;;;;28.62;28.69;99447.47;7193961;40;20367;31
2023/07/17 17:08:34;;;;;;;3.20;1.80;;;;;;;28.53;29.88;99449.97;7146289;40;20350;31
2023/07/17 17:14:06;;;;;;;3.13;1.60;;;;;;;28.27;29.87;99450.25;7163229;40;20259;31
2023/07/17 17:19:39;;;;;;;3.05;1.60;;;;;;;28.05;30.19;99467.09;7154768;40;20369;31
2023/07/17 17:25:11;;;;;;;8.05;2.35;;;;;;;27.90;29.48;99469.84;7128998;40;20270;31
2023/07/17 17:30:43;;;;;;;3.97;1.70;;;;;;;27.63;30.42;99470.03;7161361;40;20274;31
2023/07/17 17:36:20;;;;;;;4.07;1.57;;;;;;;27.42;30.87;99471.84;6995444;40;20356;31
2023/07/17 17:41:52;;;;;;;2.67;1.57;;;;;;;27.38;31.52;99467.13;7199836;40;20385;31
2023/07/17 17:52:32;;;;;;;4.20;1.83;;;;;;;27.12;31.96;99471.66;7214476;40;20284;31
2023/07/17 17:58:07;;;;;;;9.30;2.78;;;;;;;27.08;32.15;99474.13;7217705;40;20269;31
2023/07/17 18:03:39;;;;;;;2.65;1.40;;;;;;;27.06;32.23;99472.75;7265900;40;20287;31
2023/07/17 18:14:16;;;;;;;2.92;1.70;;;;;;;26.88;32.77;99482.31;7273294;40;21240;31
2023/07/17 18:19:51;;;;;;;2.74;1.60;;;;;;;26.80;32.51;99496.59;7263857;40;20293;31
2023/07/17 18:30:31;;;;;;;2.33;1.55;;;;;;;26.58;32.87;99504.16;7272200;40;21148;31
2023/07/17 18:40:56;;;;;;;2.92;1.87;;;;;;;26.40;32.14;99513.69;7239551;40;20348;31
2023/07/17 18:51:37;;;;;;;2.53;1.40;;;;;;;26.29;33.71;99529.31;7253445;39;20349;31
2023/07/17 19:01:59;;;;;;;3.05;1.58;;;;;;;26.15;33.80;99539.09;7277694;39;20272;31
2023/07/17 19:12:35;;;;;;;5.40;3.10;;;;;;;25.89;33.98;99548.19;7262579;39;20276;31
2023/07/17 19:23:26;;;;;;;3.95;2.37;;;;;;;25.75;34.12;99556.03;7272595;40;21145;31
2023/07/17 19:34:03;;;;;;;5.32;1.48;;;;;;;25.43;35.33;99566.03;7240314;40;20277;31
2023/07/17 19:44:43;;;;;;;3.00;1.60;;;;;;;25.02;36.40;99579.19;7249834;40;21209;31
2023/07/17 19:55:21;;;;;;;2.83;1.50;;;;;;;24.70;38.81;99591.88;7264411;40;21049;31
2023/07/17 20:00:53;;;;;;;4.37;1.65;;;;;;;24.48;39.34;99589.00;7272575;40;20295;31
2023/07/17 20:11:30;;;;;;;2.50;1.50;;;;;;;24.08;40.39;99593.69;7217190;40;20939;31
2023/07/17 20:21:51;;;;;;;2.75;1.90;;;;;;;23.90;40.84;99600.19;7233454;40;21794;31
2023/07/17 20:32:30;;;;;;;3.95;2.00;;;;;;;23.55;40.55;99618.69;7280366;39;21774;31
2023/07/17 20:38:06;;;;;;;4.78;1.70;;;;;;;23.36;40.87;99623.44;7273160;40;20249;31
2023/07/17 20:43:41;;;;;;;3.92;1.80;;;;;;;23.14;41.21;99634.19;7275274;40;20268;31
2023/07/17 20:49:17;;;;;;;2.65;1.42;;;;;;;22.97;42.63;99635.94;7251096;40;20269;31
2023/07/17 20:54:38;;;;;;;4.45;1.70;;;;;;;22.82;42.99;99639.12;7243404;40;20265;31
2023/07/17 20:59:58;;;;;;;4.50;2.10;;;;;;;22.73;42.81;99640.53;7227625;40;20269;31
2023/07/17 21:05:38;;;;;;;3.67;1.75;;;;;;;22.63;43.21;99650.41;7215520;40;20289;31
2023/07/17 21:11:13;;;;;;;4.60;1.90;;;;;;;22.58;43.96;99666.75;7241496;40;20416;31
2023/07/17 21:16:49;;;;;;;2.45;1.65;;;;;;;22.56;42.38;99661.47;7232918;40;20253;31
2023/07/17 21:22:25;;;;;;;2.76;1.32;;;;;;;22.47;42.81;99662.88;7219491;40;20332;31
2023/07/17 21:27:46;;;;;;;3.08;1.52;;;;;;;22.51;42.86;99658.59;7191706;40;20266;31
2023/07/17 21:33:04;;;;;;;3.84;1.60;;;;;;;22.43;43.13;99658.91;7184738;40;20254;31
2023/07/17 21:38:37;;;;;;;5.15;1.62;;;;;;;22.25;43.63;99662.53;7139957;40;20321;31
2023/07/17 21:44:08;;;;;;;5.12;1.70;;;;;;;22.20;43.85;99656.91;7228889;40;20350;31
2023/07/17 21:49:44;;;;;;;4.25;1.67;;;;;;;22.14;43.80;99657.81;7207954;40;20254;31
2023/07/17 21:55:21;;;;;;;3.33;1.70;;;;;;;22.07;44.62;99661.72;7218473;40;20243;31
2023/07/17 22:00:41;;;;;;;3.58;1.65;;;;;;;22.08;43.63;99661.47;7183931;40;20265;31
2023/07/17 22:06:01;;;;;;;3.10;1.60;;;;;;;21.75;45.45;99661.00;7214823;40;20370;31
2023/07/17 22:11:35;;;;;;;3.20;1.50;;;;;;;21.60;46.14;99669.56;7233302;40;20334;31
2023/07/17 22:16:53;;;;;;;3.00;1.50;;;;;;;21.61;44.81;99668.53;7210418;40;20253;31
2023/07/17 22:22:13;;;;;;;3.22;1.48;;;;;;;21.55;45.41;99669.41;7220145;40;20248;31
2023/07/17 22:27:49;;;;;;;3.50;1.52;;;;;;;21.57;45.37;99679.13;7261153;40;20268;31
2023/07/17 22:33:20;;;;;;;3.67;1.60;;;;;;;21.62;45.95;99680.34;7298039;39;20259;31
2023/07/17 22:38:38;;;;;;;4.67;1.70;;;;;;;21.55;45.08;99674.91;7287789;39;20379;31
2023/07/17 22:44:14;;;;;;;4.57;1.58;;;;;;;21.44;45.97;99676.50;7293421;39;20387;31
2023/07/17 22:49:32;;;;;;;2.45;1.58;;;;;;;21.36;46.06;99678.69;7220678;40;20254;31
2023/07/17 22:55:07;;;;;;;6.20;1.80;;;;;;;21.20;45.89;99682.81;7249255;40;20252;31
2023/07/17 23:00:38;;;;;;;3.28;1.50;;;;;;;21.19;46.60;99686.63;7235927;40;20440;31
2023/07/17 23:05:55;;;;;;;5.60;1.67;;;;;;;21.20;46.15;99691.03;7231894;40;20257;31
2023/07/17 23:11:12;;;;;;;3.12;1.36;;;;;;;21.21;45.69;99687.22;7253430;40;20273;31
2023/07/17 23:16:48;;;;;;;4.33;1.53;;;;;;;21.25;45.47;99688.47;7248784;40;20287;31
2023/07/17 23:22:05;;;;;;;4.00;1.65;;;;;;;21.35;45.34;99694.28;7204823;40;20366;31
2023/07/17 23:27:41;;;;;;;5.75;1.35;;;;;;;21.32;46.06;99702.97;7234592;40;20262;31
2023/07/17 23:33:14;;;;;;;3.83;1.75;;;;;;;21.26;45.84;99701.13;7169068;40;20391;31
2023/07/17 23:38:49;;;;;;;3.85;1.62;;;;;;;21.15;46.02;99701.81;7182596;40;20263;31
2023/07/17 23:44:21;;;;;;;4.40;1.60;;;;;;;21.19;46.82;99707.72;7172759;40;20270;31
2023/07/17 23:49:54;;;;;;;3.60;1.50;;;;;;;21.02;46.91;99708.22;7143970;40;20255;31
2023/07/17 23:55:31;;;;;;;4.30;1.37;;;;;;;20.85;46.46;99718.03;7215154;40;20268;31
